createdAt,value
2018-06-05T00:02:28.093Z,29.63
2018-06-05T00:04:56.188Z,30.53
2018-06-05T00:07:24.288Z,33.27
2018-06-05T00:09:52.401Z,33.63
2018-06-05T00:12:20.471Z,30.47
2018-06-05T00:14:48.844Z,32.23
2018-06-05T00:17:16.900Z,32.57
2018-06-05T00:19:44.954Z,33.60
2018-06-05T00:22:13.015Z,31.33
2018-06-05T00:24:41.908Z,31.57
2018-06-05T00:27:10.283Z,31.70
2018-06-05T00:29:38.387Z,32.57
2018-06-05T00:32:06.618Z,32.80
2018-06-05T00:34:34.731Z,33.40
2018-06-05T00:37:02.852Z,29.40
2018-06-05T00:39:31.021Z,32.63
2018-06-05T00:41:59.189Z,35.63
2018-06-05T00:44:27.665Z,36.53
2018-06-05T00:46:55.832Z,34.67
2018-06-05T00:49:23.937Z,34.47
2018-06-05T00:52:03.336Z,33.00
2018-06-05T00:54:31.597Z,35.57
2018-06-05T00:56:59.873Z,33.30
2018-06-05T00:59:28.050Z,32.67
2018-06-05T01:01:56.135Z,33.70
2018-06-05T01:04:24.162Z,32.20
2018-06-05T01:06:52.204Z,32.77
2018-06-05T01:09:20.279Z,31.77
2018-06-05T01:11:48.331Z,32.27
2018-06-05T01:14:16.439Z,32.47
2018-06-05T01:16:44.507Z,31.87
2018-06-05T01:19:12.552Z,30.97
2018-06-05T01:21:40.583Z,30.93
2018-06-05T01:24:08.789Z,30.27
2018-06-05T01:26:36.867Z,29.10
2018-06-05T01:29:05.064Z,30.63
2018-06-05T01:31:33.318Z,32.40
2018-06-05T01:34:09.292Z,32.50
2018-06-05T01:36:37.335Z,30.77
2018-06-05T01:39:08.501Z,31.10
2018-06-05T01:41:36.978Z,32.00
2018-06-05T01:44:05.155Z,32.40
2018-06-05T01:46:33.187Z,33.90
2018-06-05T01:49:01.223Z,34.23
2018-06-05T01:51:29.276Z,36.23
2018-06-05T01:53:57.323Z,32.77
2018-06-05T01:56:25.346Z,33.87
2018-06-05T01:58:53.411Z,36.63
2018-06-05T02:01:21.467Z,41.60
2018-06-05T02:03:49.479Z,38.27
2018-06-05T02:06:17.521Z,41.53
2018-06-05T02:08:45.900Z,40.80
2018-06-05T02:11:13.985Z,44.10
2018-06-05T02:13:42.047Z,46.13
2018-06-05T02:16:10.183Z,48.30
2018-06-05T02:18:38.304Z,52.33
2018-06-05T02:21:06.453Z,56.73
2018-06-05T02:23:34.641Z,56.80
2018-06-05T02:26:02.763Z,58.37
2018-06-05T02:28:30.952Z,56.50
2018-06-05T02:30:59.221Z,53.83
2018-06-05T02:33:27.375Z,58.73
2018-06-05T02:35:55.504Z,63.27
2018-06-05T02:38:23.556Z,63.27
2018-06-05T02:40:53.060Z,67.60
2018-06-05T02:43:21.527Z,71.17
2018-06-05T02:45:50.168Z,70.40
2018-06-05T02:48:18.232Z,68.53
2018-06-05T02:50:46.295Z,66.97
2018-06-05T02:53:14.344Z,72.00
2018-06-05T02:55:42.389Z,66.37
2018-06-05T02:58:10.407Z,69.17
2018-06-05T03:00:38.450Z,65.93
2018-06-05T03:03:06.507Z,64.70
2018-06-05T03:05:34.555Z,66.90
2018-06-05T03:08:02.607Z,67.97
2018-06-05T03:10:30.650Z,65.93
2018-06-05T03:12:58.690Z,66.93
2018-06-05T03:15:26.716Z,68.97
2018-06-05T03:17:54.788Z,67.10
2018-06-05T03:20:22.806Z,71.43
2018-06-05T03:22:50.862Z,69.13
2018-06-05T03:25:18.898Z,70.43
2018-06-05T03:27:46.952Z,72.70
2018-06-05T03:30:15.255Z,72.30
2018-06-05T03:32:43.324Z,67.60
2018-06-05T03:35:11.352Z,68.83
2018-06-05T03:37:39.435Z,69.97
2018-06-05T03:40:07.804Z,75.90
2018-06-05T03:42:35.937Z,67.90
2018-06-05T03:45:04.044Z,69.90
2018-06-05T03:47:32.227Z,69.60
2018-06-05T03:50:00.409Z,72.50
2018-06-05T03:52:28.646Z,75.57
2018-06-05T03:54:56.907Z,67.00
2018-06-05T03:57:24.931Z,65.37
2018-06-05T03:59:52.960Z,67.73
2018-06-05T04:02:21.001Z,65.40
2018-06-05T04:04:49.030Z,64.60
2018-06-05T04:07:17.071Z,67.57
2018-06-05T04:09:45.107Z,66.97
2018-06-05T04:12:13.134Z,64.73
2018-06-05T04:14:41.180Z,61.23
2018-06-05T04:17:09.223Z,58.30
2018-06-05T04:19:37.268Z,58.80
2018-06-05T04:22:05.307Z,62.13
2018-06-05T04:24:33.348Z,61.37
2018-06-05T04:27:01.724Z,56.63
2018-06-05T04:29:29.743Z,59.67
2018-06-05T04:31:57.774Z,55.93
2018-06-05T04:34:25.811Z,57.50
2018-06-05T04:36:53.840Z,53.07
2018-06-05T04:39:21.886Z,53.10
2018-06-05T04:41:49.916Z,51.13
2018-06-05T04:44:17.938Z,52.70
2018-06-05T04:46:45.995Z,50.03
2018-06-05T04:49:14.035Z,56.30
2018-06-05T04:51:42.100Z,52.30
2018-06-05T04:54:10.183Z,55.00
2018-06-05T04:56:38.541Z,53.60
2018-06-05T04:59:06.702Z,54.50
2018-06-05T05:01:34.807Z,50.10
2018-06-05T05:04:02.989Z,53.20
2018-06-05T05:06:31.156Z,50.97
2018-06-05T05:08:59.321Z,49.47
2018-06-05T05:11:27.481Z,49.97
2018-06-05T05:13:55.580Z,45.70
2018-06-05T05:16:23.766Z,46.93
2018-06-05T05:18:51.976Z,44.10
2018-06-05T05:21:20.020Z,42.87
2018-06-05T05:23:48.066Z,42.70
2018-06-05T05:26:16.090Z,41.00
2018-06-05T05:28:44.147Z,40.30
2018-06-05T05:31:12.194Z,40.50
2018-06-05T05:33:40.267Z,39.37
2018-06-05T05:36:08.295Z,35.30
2018-06-05T05:38:36.340Z,35.27
2018-06-05T05:41:04.388Z,34.17
2018-06-05T05:43:32.435Z,34.67
2018-06-05T05:46:00.512Z,34.50
2018-06-05T05:48:28.537Z,34.20
2018-06-05T05:50:56.579Z,33.73
2018-06-05T05:53:24.619Z,35.50
2018-06-05T05:55:52.984Z,34.93
2018-06-05T05:58:21.028Z,36.40
2018-06-05T06:00:49.079Z,37.03
2018-06-05T06:03:17.176Z,35.63
2018-06-05T06:05:45.286Z,35.77
2018-06-05T06:08:13.355Z,32.77
2018-06-05T06:10:41.465Z,32.80
2018-06-05T06:13:09.532Z,32.97
2018-06-05T06:15:37.628Z,34.73
2018-06-05T06:18:05.744Z,37.73
2018-06-05T06:20:33.881Z,36.47
2018-06-05T06:23:01.923Z,38.03
2018-06-05T06:25:30.517Z,39.27
2018-06-05T06:27:58.563Z,40.10
2018-06-05T06:30:26.615Z,35.47
2018-06-05T06:32:54.699Z,38.40
2018-06-05T06:35:22.784Z,41.37
2018-06-05T06:37:50.861Z,40.87
2018-06-05T06:40:18.901Z,41.27
2018-06-05T06:42:46.939Z,37.40
2018-06-05T06:45:15.003Z,35.53
2018-06-05T06:47:43.048Z,38.23
2018-06-05T06:50:11.343Z,42.70
2018-06-05T06:52:39.399Z,36.73
2018-06-05T06:55:07.435Z,40.87
2018-06-05T06:57:35.542Z,41.67
2018-06-05T07:00:03.678Z,46.43
2018-06-05T07:02:31.811Z,51.77
2018-06-05T07:04:59.863Z,49.87
2018-06-05T07:07:28.027Z,55.60
2018-06-05T07:09:56.092Z,58.73
2018-06-05T07:12:27.176Z,61.20
2018-06-05T07:14:55.244Z,64.03
2018-06-05T07:17:23.311Z,68.47
2018-06-05T07:19:51.360Z,69.57
2018-06-05T07:22:19.463Z,74.80
2018-06-05T07:24:47.575Z,76.43
2018-06-05T07:27:15.624Z,74.87
2018-06-05T07:29:43.649Z,73.20
2018-06-05T07:32:11.695Z,76.53
2018-06-05T07:34:39.750Z,77.77
2018-06-05T07:37:07.771Z,80.37
2018-06-05T07:39:35.827Z,72.13
2018-06-05T07:42:03.868Z,76.20
2018-06-05T07:44:31.940Z,74.23
2018-06-05T07:46:59.991Z,73.87
2018-06-05T07:49:28.074Z,77.90
2018-06-05T07:51:56.087Z,74.27
2018-06-05T07:54:24.231Z,75.40
2018-06-05T07:56:52.279Z,80.13
2018-06-05T07:59:20.314Z,77.27
2018-06-05T08:01:48.558Z,71.83
2018-06-05T08:04:16.640Z,70.43
2018-06-05T08:06:44.692Z,69.10
2018-06-05T08:09:12.932Z,77.27
2018-06-05T08:11:41.147Z,77.77
2018-06-05T08:14:09.422Z,71.63
2018-06-05T08:16:37.471Z,77.47
2018-06-05T08:19:05.539Z,76.53
2018-06-05T08:21:33.587Z,75.07
2018-06-05T08:24:01.671Z,77.87
2018-06-05T08:26:42.473Z,73.27
2018-06-05T08:29:10.541Z,75.13
2018-06-05T08:31:38.919Z,72.07
2018-06-05T08:34:07.014Z,72.23
2018-06-05T08:36:35.168Z,74.03
2018-06-05T08:39:03.448Z,77.33
2018-06-05T08:41:31.799Z,75.23
2018-06-05T08:44:00.097Z,76.53
2018-06-05T08:46:28.439Z,80.63
2018-06-05T08:48:56.520Z,74.73
2018-06-05T08:51:24.791Z,72.73
2018-06-05T08:53:52.924Z,75.10
2018-06-05T08:56:20.991Z,76.40
2018-06-05T08:58:49.051Z,79.73
2018-06-05T09:01:17.123Z,76.30
2018-06-05T09:03:45.180Z,75.80
2018-06-05T09:06:13.257Z,75.00
2018-06-05T09:08:41.319Z,75.73
2018-06-05T09:11:09.404Z,76.23
2018-06-05T09:13:37.536Z,71.83
2018-06-05T09:16:05.664Z,70.00
2018-06-05T09:18:33.816Z,72.27
2018-06-05T09:21:02.081Z,75.07
2018-06-05T09:23:30.729Z,69.83
2018-06-05T09:25:58.980Z,69.93
2018-06-05T09:28:27.077Z,70.30
2018-06-05T09:30:55.285Z,74.17
2018-06-05T09:33:23.399Z,70.27
2018-06-05T09:35:51.519Z,69.67
2018-06-05T09:38:19.572Z,65.93
2018-06-05T09:40:47.623Z,65.27
2018-06-05T09:43:15.696Z,63.20
2018-06-05T09:45:43.739Z,68.07
2018-06-05T09:48:12.132Z,67.90
2018-06-05T09:50:44.376Z,69.63
2018-06-05T09:53:12.483Z,69.17
2018-06-05T09:55:40.605Z,67.37
2018-06-05T09:58:08.907Z,66.50
2018-06-05T10:00:42.354Z,71.93
2018-06-05T10:03:10.601Z,73.87
2018-06-05T10:05:38.684Z,67.73
2018-06-05T10:08:06.813Z,71.00
2018-06-05T10:10:34.931Z,72.63
2018-06-05T10:13:02.996Z,66.90
2018-06-05T10:15:31.047Z,65.40
2018-06-05T10:17:59.079Z,61.20
2018-06-05T10:20:27.132Z,60.73
2018-06-05T10:22:55.159Z,59.70
2018-06-05T10:25:23.196Z,62.77
2018-06-05T10:27:51.259Z,58.53
2018-06-05T10:30:19.272Z,63.20
2018-06-05T10:32:47.591Z,58.63
2018-06-05T10:35:15.627Z,56.37
2018-06-05T10:37:43.682Z,60.90
2018-06-05T10:40:12.218Z,61.47
2018-06-05T10:42:40.243Z,62.27
2018-06-05T10:45:08.384Z,58.93
2018-06-05T10:47:36.554Z,58.97
2018-06-05T10:50:04.684Z,56.37
2018-06-05T10:52:34.025Z,62.13
2018-06-05T10:55:02.334Z,57.45
2018-06-05T10:57:30.529Z,57.93
2018-06-05T10:59:59.024Z,61.90
2018-06-05T11:02:27.104Z,63.68
2018-06-05T11:04:55.241Z,62.33
2018-06-05T11:07:23.303Z,63.45
2018-06-05T11:09:51.363Z,68.55
2018-06-05T11:12:19.431Z,61.05
2018-06-05T11:14:47.469Z,60.98
2018-06-05T11:17:15.562Z,70.28
2018-06-05T11:19:43.612Z,69.37
2018-06-05T11:22:11.663Z,60.12
2018-06-05T11:24:39.712Z,65.75
2018-06-05T11:27:07.751Z,67.15
2018-06-05T11:29:35.794Z,61.42
2018-06-05T11:32:03.831Z,65.62
2018-06-05T11:34:31.886Z,64.50
2018-06-05T11:36:59.917Z,56.75
2018-06-05T11:39:27.960Z,56.95
2018-06-05T11:41:56.446Z,55.83
2018-06-05T11:44:24.489Z,55.15
2018-06-05T11:46:52.609Z,50.30
2018-06-05T11:49:20.655Z,53.55
2018-06-05T11:51:48.708Z,56.35
2018-06-05T11:54:16.815Z,56.50
2018-06-05T11:56:44.823Z,49.58
2018-06-05T11:59:12.852Z,46.77
2018-06-05T12:01:40.893Z,44.40
2018-06-05T12:04:08.911Z,44.35
2018-06-05T12:06:36.963Z,43.00
2018-06-05T12:09:07.264Z,44.70
2018-06-05T12:11:35.368Z,42.58
2018-06-05T12:14:03.667Z,43.63
2018-06-05T12:16:31.724Z,45.17
2018-06-05T12:18:59.772Z,43.65
2018-06-05T12:21:27.840Z,40.00
2018-06-05T12:23:55.898Z,40.12
2018-06-05T12:26:23.981Z,44.38
2018-06-05T12:28:52.014Z,41.68
2018-06-05T12:31:20.044Z,38.38
2018-06-05T12:33:48.099Z,39.53
2018-06-05T12:36:16.142Z,40.23
2018-06-05T12:38:44.213Z,38.25
2018-06-05T12:41:12.275Z,37.10
2018-06-05T12:43:40.344Z,36.00
2018-06-05T12:46:08.399Z,37.28
2018-06-05T12:48:36.452Z,37.35
2018-06-05T12:51:04.496Z,39.27
2018-06-05T12:53:32.526Z,36.85
2018-06-05T12:56:00.585Z,37.48
2018-06-05T12:58:28.836Z,36.03
2018-06-05T13:00:56.944Z,33.40
2018-06-05T13:03:25.036Z,39.05
2018-06-05T13:05:53.176Z,34.63
2018-06-05T13:08:21.259Z,34.95
2018-06-05T13:10:49.301Z,36.53
2018-06-05T13:13:17.363Z,34.55
2018-06-05T13:15:45.404Z,34.95
2018-06-05T13:18:13.429Z,34.48
2018-06-05T13:20:41.552Z,31.20
2018-06-05T13:23:09.692Z,32.85
2018-06-05T13:25:37.738Z,33.00
2018-06-05T13:28:06.025Z,31.35
2018-06-05T13:30:34.596Z,30.80
2018-06-05T13:33:02.783Z,29.40
2018-06-05T13:35:30.909Z,32.75
2018-06-05T13:37:59.074Z,32.90
2018-06-05T13:40:27.187Z,31.45
2018-06-05T13:42:55.724Z,32.40
2018-06-05T13:45:23.775Z,30.43
2018-06-05T13:47:51.810Z,31.87
2018-06-05T13:50:19.880Z,31.93
2018-06-05T13:52:47.940Z,31.17
2018-06-05T13:55:15.979Z,32.75
2018-06-05T13:57:44.054Z,31.87
2018-06-05T14:00:12.088Z,33.00
2018-06-05T14:02:40.152Z,28.62
2018-06-05T14:05:08.240Z,30.48
2018-06-05T14:07:36.271Z,30.05
2018-06-05T14:10:04.307Z,28.12
2018-06-05T14:12:32.348Z,29.85
2018-06-05T14:15:00.376Z,27.87
2018-06-05T14:17:28.443Z,32.23
2018-06-05T14:19:56.467Z,28.92
2018-06-05T14:22:24.516Z,29.92
2018-06-05T14:24:52.546Z,29.40
2018-06-05T14:27:20.575Z,28.67
2018-06-05T14:29:48.886Z,28.92
2018-06-05T14:32:16.947Z,29.65
2018-06-05T14:34:45.000Z,28.95
2018-06-05T14:37:13.039Z,30.10
2018-06-05T14:39:41.081Z,31.40
2018-06-05T14:42:09.108Z,24.80
2018-06-05T14:44:37.139Z,29.72
2018-06-05T14:47:05.167Z,28.57
2018-06-05T14:49:33.447Z,29.23
2018-06-05T14:52:01.472Z,28.67
2018-06-05T14:54:30.121Z,27.82
2018-06-05T14:56:58.239Z,28.67
2018-06-05T14:59:26.287Z,27.75
2018-06-05T15:01:54.345Z,25.97
2018-06-05T15:04:22.379Z,25.35
2018-06-05T15:06:50.628Z,29.18
2018-06-05T15:09:18.677Z,26.40
2018-06-05T15:11:46.905Z,22.77
2018-06-05T15:14:15.705Z,28.23
2018-06-05T15:16:43.784Z,26.40
2018-06-05T15:19:13.891Z,26.45
2018-06-05T15:21:41.938Z,27.17
2018-06-05T15:24:10.180Z,27.48
2018-06-05T15:26:38.301Z,28.87
2018-06-05T15:29:07.625Z,25.50
2018-06-05T15:31:35.742Z,27.67
2018-06-05T15:34:04.103Z,25.05
2018-06-05T15:36:32.365Z,25.50
2018-06-05T15:39:00.544Z,25.05
2018-06-05T15:41:29.145Z,26.23
2018-06-05T15:43:57.373Z,26.97
2018-06-05T15:46:25.488Z,25.00
2018-06-05T15:48:53.571Z,24.00
2018-06-05T15:51:22.203Z,27.45
2018-06-05T15:53:50.376Z,23.70
2018-06-05T15:56:18.432Z,25.05
2018-06-05T15:58:46.497Z,25.15
2018-06-05T16:01:15.032Z,24.75
2018-06-05T16:03:43.309Z,26.40
2018-06-05T16:06:11.384Z,23.47
2018-06-05T16:08:39.548Z,24.32
2018-06-05T16:11:07.751Z,22.00
2018-06-05T16:13:35.855Z,22.40
2018-06-05T16:16:04.280Z,22.30
2018-06-05T16:18:33.376Z,23.70
2018-06-05T16:21:02.391Z,19.27
2018-06-05T16:23:30.918Z,21.10
2018-06-05T16:25:59.142Z,22.40
2018-06-05T16:28:28.870Z,20.88
2018-06-05T16:30:56.954Z,20.25
2018-06-05T16:33:25.327Z,19.90
2018-06-05T16:35:53.355Z,20.20
2018-06-05T16:38:21.380Z,20.30
2018-06-05T16:40:49.422Z,22.50
2018-06-05T16:43:17.459Z,20.72
2018-06-05T16:45:45.506Z,19.32
2018-06-05T16:48:13.564Z,20.52
2018-06-05T16:50:41.595Z,21.57
2018-06-05T16:53:09.636Z,20.43
2018-06-05T16:55:37.805Z,21.23
2018-06-05T16:58:05.927Z,19.05
2018-06-05T17:00:34.073Z,20.62
2018-06-05T17:03:02.417Z,21.12
2018-06-05T17:05:30.667Z,20.57
2018-06-05T17:07:58.874Z,19.48
2018-06-05T17:10:26.917Z,19.87
2018-06-05T17:12:55.072Z,18.95
2018-06-05T17:15:23.127Z,18.73
2018-06-05T17:17:51.208Z,20.15
2018-06-05T17:20:19.250Z,18.87
2018-06-05T17:22:47.340Z,17.60
2018-06-05T17:25:15.380Z,18.50
2018-06-05T17:27:43.429Z,21.33
2018-06-05T17:30:11.967Z,20.27
2018-06-05T17:32:40.277Z,19.82
2018-06-05T17:35:08.410Z,21.12
2018-06-05T17:37:36.521Z,19.10
2018-06-05T17:40:04.686Z,20.30
2018-06-05T17:42:32.880Z,19.17
2018-06-05T17:45:01.128Z,21.07
2018-06-05T17:47:29.308Z,18.45
2018-06-05T17:49:57.447Z,16.75
2018-06-05T17:52:25.638Z,16.73
2018-06-05T17:54:53.738Z,16.95
2018-06-05T17:57:21.887Z,17.30
2018-06-05T17:59:49.922Z,16.10
2018-06-05T18:02:17.999Z,17.15
2018-06-05T18:04:46.036Z,16.10
2018-06-05T18:07:14.089Z,16.60
2018-06-05T18:09:42.100Z,15.98
2018-06-05T18:12:10.175Z,15.55
2018-06-05T18:14:38.224Z,15.98
2018-06-05T18:17:06.806Z,15.60
2018-06-05T18:19:35.547Z,14.95
2018-06-05T18:22:03.948Z,15.80
2018-06-05T18:24:32.577Z,15.00
2018-06-05T18:27:01.292Z,16.10
2018-06-05T18:29:30.264Z,14.70
2018-06-05T18:31:59.617Z,15.03
2018-06-05T18:34:27.792Z,15.40
2018-06-05T18:36:55.875Z,14.10
2018-06-05T18:39:24.199Z,15.63
2018-06-05T18:41:52.604Z,16.37
2018-06-05T18:44:21.313Z,14.83
2018-06-05T18:46:49.964Z,15.75
2018-06-05T18:49:19.689Z,15.40
2018-06-05T18:51:48.382Z,16.10
2018-06-05T18:54:17.107Z,14.93
2018-06-05T18:56:45.905Z,15.53
2018-06-05T18:59:13.398Z,15.93
2018-06-05T19:01:41.889Z,15.18
2018-06-05T19:04:10.571Z,14.78
2018-06-05T19:06:39.125Z,15.37
2018-06-05T19:09:09.211Z,14.20
2018-06-05T19:11:39.220Z,16.45
2018-06-05T19:14:08.462Z,14.97
2018-06-05T19:16:36.938Z,16.27
2018-06-05T19:19:05.536Z,13.88
2018-06-05T19:21:33.796Z,13.30
2018-06-05T19:24:01.876Z,15.20
2018-06-05T19:26:29.915Z,15.80
2018-06-05T19:28:58.105Z,15.80
2018-06-05T19:31:26.703Z,13.80
2018-06-05T19:33:54.843Z,14.40
2018-06-05T19:36:22.894Z,15.30
2018-06-05T19:38:50.983Z,15.10
2018-06-05T19:41:19.029Z,14.47
2018-06-05T19:43:50.275Z,12.30
2018-06-05T19:46:18.353Z,12.60
2018-06-05T19:48:48.145Z,13.67
2018-06-05T19:51:16.528Z,14.60
2018-06-05T19:53:44.563Z,14.00
2018-06-05T19:56:15.964Z,13.47
2018-06-05T19:58:44.159Z,13.07
2018-06-05T20:01:12.353Z,13.17
2018-06-05T20:03:41.622Z,15.43
2018-06-05T20:06:14.494Z,14.33
2018-06-05T20:08:42.644Z,15.10
2018-06-05T20:11:10.693Z,15.77
2018-06-05T20:13:38.961Z,16.50
2018-06-05T20:16:07.169Z,15.57
2018-06-05T20:18:35.556Z,14.13
2018-06-05T20:21:04.552Z,15.07
2018-06-05T20:23:32.933Z,16.07
2018-06-05T20:26:01.261Z,17.23
2018-06-05T20:28:29.601Z,15.77
2018-06-05T20:30:57.738Z,16.80
2018-06-05T20:33:26.151Z,17.10
2018-06-05T20:35:54.255Z,17.23
2018-06-05T20:38:22.321Z,16.20
2018-06-05T20:40:51.452Z,14.53
2018-06-05T20:43:19.498Z,20.90
2018-06-05T20:45:47.680Z,20.97
2018-06-05T20:48:15.788Z,17.53
2018-06-05T20:50:43.856Z,19.07
2018-06-05T20:53:12.192Z,17.67
2018-06-05T20:55:40.255Z,20.80
2018-06-05T20:58:08.335Z,19.43
2018-06-05T21:00:36.506Z,20.20
2018-06-05T21:03:05.183Z,16.60
2018-06-05T21:05:33.633Z,18.47
2018-06-05T21:08:01.872Z,21.77
2018-06-05T21:10:30.058Z,20.40
2018-06-05T21:12:58.615Z,20.10
2018-06-05T21:15:26.747Z,21.10
2018-06-05T21:17:54.844Z,21.30
2018-06-05T21:20:22.935Z,20.13
2018-06-05T21:22:50.995Z,21.13
2018-06-05T21:25:19.484Z,20.53
2018-06-05T21:27:47.545Z,21.47
2018-06-05T21:30:15.586Z,21.43
2018-06-05T21:32:43.643Z,20.83
2018-06-05T21:35:11.756Z,21.20
2018-06-05T21:37:39.811Z,21.63
2018-06-05T21:40:07.860Z,21.30
2018-06-05T21:42:35.972Z,19.00
2018-06-05T21:45:04.003Z,21.13
2018-06-05T21:47:33.214Z,21.20
2018-06-05T21:50:01.244Z,21.30
2018-06-05T21:52:29.295Z,22.30
2018-06-05T21:54:57.332Z,21.63
2018-06-05T21:57:25.360Z,21.60
2018-06-05T21:59:53.427Z,20.43
2018-06-05T22:02:21.487Z,19.63
2018-06-05T22:04:49.539Z,20.90
2018-06-05T22:07:17.568Z,20.27
2018-06-05T22:09:45.615Z,20.53
2018-06-05T22:12:13.643Z,19.93
2018-06-05T22:14:41.710Z,20.13
2018-06-05T22:17:09.738Z,21.40
2018-06-05T22:19:37.754Z,22.03
2018-06-05T22:22:05.804Z,23.00
2018-06-05T22:24:33.833Z,21.03
2018-06-05T22:27:01.883Z,20.77
2018-06-05T22:29:29.903Z,20.60
2018-06-05T22:31:57.951Z,21.90
2018-06-05T22:34:26.011Z,21.53
2018-06-05T22:36:54.053Z,21.73
2018-06-05T22:39:22.254Z,22.23
2018-06-05T22:41:50.284Z,20.13
2018-06-05T22:44:18.483Z,23.30
2018-06-05T22:46:47.247Z,20.80
2018-06-05T22:49:15.287Z,22.40
2018-06-05T22:51:43.339Z,19.37
2018-06-05T22:54:11.407Z,21.37
2018-06-05T22:56:39.460Z,22.37
2018-06-05T22:59:07.487Z,21.53
2018-06-05T23:01:35.551Z,23.47
2018-06-05T23:04:03.604Z,20.73
2018-06-05T23:06:31.678Z,20.77
2018-06-05T23:08:59.740Z,22.27
2018-06-05T23:11:27.796Z,24.33
2018-06-05T23:13:55.852Z,23.77
2018-06-05T23:16:24.235Z,22.40
2018-06-05T23:18:52.295Z,20.17
2018-06-05T23:21:20.325Z,20.27
2018-06-05T23:23:48.433Z,20.33
2018-06-05T23:26:16.511Z,21.20
2018-06-05T23:28:44.583Z,19.17
2018-06-05T23:31:12.628Z,19.47
2018-06-05T23:33:40.665Z,21.90
2018-06-05T23:36:08.744Z,21.77
2018-06-05T23:38:36.827Z,22.03
2018-06-05T23:41:04.880Z,18.53
2018-06-05T23:43:33.111Z,19.63
2018-06-05T23:46:01.385Z,20.10
2018-06-05T23:48:29.473Z,19.77
2018-06-05T23:50:57.569Z,19.73
2018-06-05T23:53:25.700Z,19.80
2018-06-05T23:55:53.773Z,22.30
2018-06-05T23:58:21.848Z,23.50
